createdAt,value
2023-04-20T00:00:40.375Z,100.00
2023-04-20T00:03:08.693Z,100.00
2023-04-20T00:05:37.704Z,100.00
2023-04-20T00:08:06.192Z,100.00
2023-04-20T00:10:34.159Z,100.00
2023-04-20T00:13:02.161Z,100.00
2023-04-20T00:15:30.350Z,100.00
2023-04-20T00:17:59.678Z,100.00
2023-04-20T00:20:27.892Z,100.00
2023-04-20T00:22:56.137Z,100.00
2023-04-20T00:25:24.058Z,100.00
2023-04-20T00:27:52.021Z,100.00
2023-04-20T00:30:19.993Z,100.00
2023-04-20T00:32:47.997Z,100.00
2023-04-20T00:35:17.350Z,100.00
2023-04-20T00:37:45.283Z,100.00
2023-04-20T00:40:13.636Z,100.00
2023-04-20T00:42:42.362Z,100.00
2023-04-20T00:45:11.159Z,100.00
2023-04-20T00:47:39.467Z,100.00
2023-04-20T00:50:08.856Z,100.00
2023-04-20T00:52:38.199Z,100.00
2023-04-20T00:55:07.222Z,100.00
2023-04-20T00:57:35.555Z,100.00
2023-04-20T01:00:06.721Z,100.00
2023-04-20T01:02:34.737Z,100.00
2023-04-20T01:05:04.011Z,100.00
2023-04-20T01:07:32.386Z,100.00
2023-04-20T01:10:01.711Z,100.00
2023-04-20T01:12:29.661Z,100.00
2023-04-20T01:14:57.607Z,100.00
2023-04-20T01:17:25.714Z,100.00
2023-04-20T01:19:53.732Z,100.00
2023-04-20T01:22:23.039Z,100.00
2023-04-20T01:24:51.022Z,100.00
2023-04-20T01:27:18.922Z,100.00
2023-04-20T01:29:47.173Z,100.00
2023-04-20T01:32:15.091Z,100.00
2023-04-20T01:34:43.068Z,100.00
2023-04-20T01:37:10.979Z,100.00
2023-04-20T01:39:40.387Z,100.00
2023-04-20T01:42:08.459Z,100.00
2023-04-20T01:44:36.419Z,100.00
2023-04-20T01:47:04.607Z,100.00
2023-04-20T01:49:32.711Z,100.00
2023-04-20T01:52:01.028Z,100.00
2023-04-20T01:54:29.043Z,100.00
2023-04-20T01:56:58.778Z,100.00
2023-04-20T01:59:26.735Z,100.00
2023-04-20T02:01:54.726Z,100.00
2023-04-20T02:04:22.763Z,100.00
2023-04-20T02:06:50.758Z,100.00
2023-04-20T02:09:18.961Z,100.00
2023-04-20T02:11:47.086Z,100.00
2023-04-20T02:14:16.399Z,100.00
2023-04-20T02:16:44.374Z,100.00
2023-04-20T02:19:12.330Z,100.00
2023-04-20T02:21:40.436Z,100.00
2023-04-20T02:24:08.745Z,100.00
2023-04-20T02:26:36.665Z,100.00
2023-04-20T02:29:04.556Z,100.00
2023-04-20T02:31:34.443Z,100.00
2023-04-20T02:34:02.695Z,100.00
2023-04-20T02:36:30.979Z,100.00
2023-04-20T02:38:58.907Z,100.00
2023-04-20T02:41:26.833Z,100.00
2023-04-20T02:43:54.768Z,100.00
2023-04-20T02:46:22.703Z,100.00
2023-04-20T02:48:52.058Z,100.00
2023-04-20T02:51:19.977Z,100.00
2023-04-20T02:53:47.928Z,100.00
2023-04-20T02:56:15.843Z,100.00
2023-04-20T02:58:43.815Z,100.00
2023-04-20T03:01:11.813Z,100.00
2023-04-20T03:03:39.849Z,100.00
2023-04-20T03:06:09.447Z,100.00
2023-04-20T03:08:37.409Z,100.00
2023-04-20T03:11:05.388Z,100.00
2023-04-20T03:13:33.342Z,100.00
2023-04-20T03:16:02.796Z,100.00
2023-04-20T03:18:30.767Z,100.00
2023-04-20T03:20:58.720Z,100.00
2023-04-20T03:23:28.097Z,100.00
2023-04-20T03:25:56.016Z,100.00
2023-04-20T03:28:23.950Z,100.00
2023-04-20T03:30:51.929Z,100.00
2023-04-20T03:33:19.916Z,100.00
2023-04-20T03:35:47.889Z,100.00
2023-04-20T03:38:15.808Z,100.00
2023-04-20T03:40:45.497Z,100.00
2023-04-20T03:43:13.433Z,100.00
2023-04-20T03:45:41.416Z,100.00
2023-04-20T03:48:09.406Z,100.00
2023-04-20T03:50:37.401Z,100.00
2023-04-20T03:53:05.370Z,100.00
2023-04-20T03:55:33.308Z,100.00
2023-04-20T03:58:02.577Z,100.00
2023-04-20T04:00:30.536Z,100.00
2023-04-20T04:02:58.561Z,100.00
2023-04-20T04:05:26.703Z,100.00
2023-04-20T04:07:54.804Z,100.00
2023-04-20T04:10:22.725Z,100.00
2023-04-20T04:12:50.631Z,100.00
2023-04-20T04:15:20.332Z,100.00
2023-04-20T04:17:48.840Z,100.00
2023-04-20T04:20:16.847Z,100.00
2023-04-20T04:22:44.831Z,100.00
2023-04-20T04:25:12.996Z,100.00
2023-04-20T04:27:41.450Z,100.00
2023-04-20T04:30:11.218Z,100.00
2023-04-20T04:32:40.773Z,100.00
2023-04-20T04:35:10.853Z,100.00
2023-04-20T04:37:38.847Z,100.00
2023-04-20T04:40:09.329Z,100.00
2023-04-20T04:42:37.254Z,100.00
2023-04-20T04:45:05.803Z,100.00
2023-04-20T04:47:35.873Z,100.00
2023-04-20T04:50:05.923Z,100.00
2023-04-20T04:52:34.068Z,100.00
2023-04-20T04:55:02.636Z,100.00
2023-04-20T04:57:30.658Z,100.00
2023-04-20T04:59:58.664Z,100.00
2023-04-20T05:02:26.893Z,96.94
2023-04-20T05:04:55.148Z,93.01
2023-04-20T05:07:24.852Z,94.93
2023-04-20T05:09:52.819Z,98.20
2023-04-20T05:12:20.760Z,99.75
2023-04-20T05:14:48.705Z,100.00
2023-04-20T05:17:16.687Z,100.00
2023-04-20T05:19:44.630Z,100.00
2023-04-20T05:22:12.560Z,99.26
2023-04-20T05:24:42.367Z,98.78
2023-04-20T05:27:11.329Z,97.28
2023-04-20T05:29:39.290Z,99.64
2023-04-20T05:32:07.368Z,99.02
2023-04-20T05:34:35.381Z,99.05
2023-04-20T05:37:04.772Z,99.71
2023-04-20T05:39:32.707Z,95.97
2023-04-20T05:42:02.280Z,94.87
2023-04-20T05:44:30.201Z,92.78
2023-04-20T05:46:58.159Z,90.46
2023-04-20T05:49:26.334Z,89.15
2023-04-20T05:51:54.343Z,85.92
2023-04-20T05:54:22.552Z,83.33
2023-04-20T05:56:50.532Z,83.35
2023-04-20T05:59:19.998Z,83.03
2023-04-20T06:01:47.905Z,83.25
2023-04-20T06:04:16.201Z,80.29
2023-04-20T06:06:44.304Z,80.79
2023-04-20T06:09:12.260Z,79.00
2023-04-20T06:11:40.207Z,80.13
2023-04-20T06:14:08.104Z,76.12
2023-04-20T06:16:37.431Z,74.26
2023-04-20T06:19:05.391Z,72.00
2023-04-20T06:21:34.548Z,69.40
2023-04-20T06:24:02.533Z,68.76
2023-04-20T06:26:30.454Z,68.34
2023-04-20T06:28:58.378Z,68.64
2023-04-20T06:31:26.426Z,66.06
2023-04-20T06:33:55.824Z,63.05
2023-04-20T06:36:23.790Z,63.18
2023-04-20T06:38:51.749Z,65.15
2023-04-20T06:41:19.683Z,63.70
2023-04-20T06:43:47.676Z,65.09
2023-04-20T06:46:15.623Z,62.38
2023-04-20T06:48:43.626Z,59.93
2023-04-20T06:51:13.704Z,59.01
2023-04-20T06:53:41.698Z,62.18
2023-04-20T06:56:09.758Z,64.77
2023-04-20T06:58:38.885Z,67.08
2023-04-20T07:01:06.895Z,67.48
2023-04-20T07:03:35.229Z,69.51
2023-04-20T07:06:03.272Z,73.19
2023-04-20T07:08:32.580Z,74.57
2023-04-20T07:11:00.576Z,75.93
2023-04-20T07:13:31.466Z,75.54
2023-04-20T07:16:01.634Z,75.17
2023-04-20T07:18:29.674Z,73.45
2023-04-20T07:20:57.656Z,73.43
2023-04-20T07:23:27.960Z,73.47
2023-04-20T07:25:57.315Z,73.52
2023-04-20T07:28:25.261Z,70.13
2023-04-20T07:30:53.197Z,68.10
2023-04-20T07:33:21.290Z,67.90
2023-04-20T07:35:49.210Z,65.55
2023-04-20T07:38:17.146Z,60.70
2023-04-20T07:40:45.060Z,55.17
2023-04-20T07:43:14.372Z,54.16
2023-04-20T07:45:42.684Z,54.90
2023-04-20T07:48:12.525Z,54.90
2023-04-20T07:50:40.575Z,52.48
2023-04-20T07:53:08.510Z,49.08
2023-04-20T07:55:36.770Z,47.26
2023-04-20T07:58:04.780Z,49.21
2023-04-20T08:00:34.188Z,51.48
2023-04-20T08:03:02.241Z,53.69
2023-04-20T08:05:30.397Z,57.28
2023-04-20T08:07:58.917Z,57.45
2023-04-20T08:10:26.926Z,57.49
2023-04-20T08:12:54.868Z,56.57
2023-04-20T08:15:22.924Z,56.97
2023-04-20T08:17:53.068Z,57.33
2023-04-20T08:20:21.123Z,55.10
2023-04-20T08:22:49.372Z,58.09
2023-04-20T08:25:17.505Z,57.48
2023-04-20T08:27:45.500Z,59.17
2023-04-20T08:30:13.902Z,60.23
2023-04-20T08:32:42.392Z,60.28
2023-04-20T08:35:11.791Z,61.12
2023-04-20T08:37:39.841Z,61.16
2023-04-20T08:40:09.274Z,61.36
2023-04-20T08:42:37.278Z,63.91
2023-04-20T08:45:05.588Z,63.19
2023-04-20T08:47:34.102Z,63.95
2023-04-20T08:50:02.075Z,63.32
2023-04-20T08:52:31.454Z,65.60
2023-04-20T08:54:59.411Z,65.47
2023-04-20T08:57:27.385Z,66.71
2023-04-20T08:59:55.551Z,66.67
2023-04-20T09:02:23.751Z,67.28
2023-04-20T09:05:01.472Z,66.96
2023-04-20T09:07:29.489Z,64.12
2023-04-20T09:09:59.402Z,65.94
2023-04-20T09:12:27.406Z,64.79
2023-04-20T09:14:55.980Z,66.65
2023-04-20T09:17:33.859Z,67.28
2023-04-20T09:20:01.945Z,68.73
2023-04-20T09:22:33.014Z,66.86
2023-04-20T09:25:02.386Z,67.92
2023-04-20T09:27:30.322Z,65.71
2023-04-20T09:29:59.076Z,64.91
2023-04-20T09:32:28.132Z,63.28
2023-04-20T09:34:56.166Z,64.12
2023-04-20T09:37:24.108Z,61.29
2023-04-20T09:39:52.120Z,60.82
2023-04-20T09:42:21.459Z,57.70
2023-04-20T09:44:49.435Z,58.39
2023-04-20T09:47:17.777Z,61.51
2023-04-20T09:49:46.630Z,63.36
2023-04-20T09:52:17.411Z,63.41
2023-04-20T09:54:45.462Z,65.27
2023-04-20T09:57:13.865Z,66.01
2023-04-20T09:59:44.048Z,67.33
2023-04-20T10:02:13.333Z,67.51
2023-04-20T10:04:53.828Z,65.40
2023-04-20T10:07:26.066Z,63.75
2023-04-20T10:10:05.003Z,59.18
2023-04-20T10:12:32.995Z,56.66
2023-04-20T10:15:02.268Z,54.33
2023-04-20T10:17:33.612Z,53.83
2023-04-20T10:20:01.687Z,54.82
2023-04-20T10:22:33.048Z,58.06
2023-04-20T10:25:01.301Z,58.05
2023-04-20T10:27:32.271Z,60.37
2023-04-20T10:30:11.821Z,59.46
2023-04-20T10:32:39.815Z,58.56
2023-04-20T10:35:08.773Z,57.57
2023-04-20T10:37:36.749Z,60.42
2023-04-20T10:40:07.666Z,57.90
2023-04-20T10:42:43.389Z,58.06
2023-04-20T10:45:12.855Z,55.91
2023-04-20T10:47:41.797Z,53.71
2023-04-20T10:50:10.846Z,53.78
2023-04-20T10:52:39.924Z,52.77
2023-04-20T10:55:08.494Z,52.21
2023-04-20T10:57:37.441Z,53.35
2023-04-20T11:00:17.660Z,53.30
2023-04-20T11:02:51.743Z,55.67
2023-04-20T11:05:20.404Z,57.15
2023-04-20T11:07:51.904Z,57.25
2023-04-20T11:10:20.257Z,58.24
2023-04-20T11:12:48.222Z,58.70
2023-04-20T11:15:17.754Z,60.63
2023-04-20T11:17:47.086Z,60.33
2023-04-20T11:20:17.778Z,63.75
2023-04-20T11:22:45.856Z,62.67
2023-04-20T11:25:14.051Z,60.90
2023-04-20T11:27:43.210Z,61.74
2023-04-20T11:30:11.460Z,58.42
2023-04-20T11:32:41.141Z,58.10
2023-04-20T11:35:10.955Z,57.45
2023-04-20T11:37:47.432Z,55.81
2023-04-20T11:40:15.378Z,56.01
2023-04-20T11:42:43.323Z,53.31
2023-04-20T11:45:12.211Z,55.47
2023-04-20T11:47:42.084Z,54.16
2023-04-20T11:50:10.432Z,55.05
2023-04-20T11:52:38.706Z,59.70
2023-04-20T11:55:07.779Z,71.90
2023-04-20T11:57:36.266Z,73.73
2023-04-20T12:00:04.953Z,76.44
2023-04-20T12:02:32.972Z,75.05
2023-04-20T12:05:03.220Z,73.59
2023-04-20T12:07:31.242Z,71.49
2023-04-20T12:09:59.191Z,72.22
2023-04-20T12:12:27.555Z,68.88
2023-04-20T12:14:55.495Z,67.72
2023-04-20T12:17:23.506Z,66.08
2023-04-20T12:19:52.578Z,59.56
2023-04-20T12:22:21.923Z,46.07
2023-04-20T12:24:49.848Z,41.71
2023-04-20T12:27:17.829Z,40.66
2023-04-20T12:29:45.793Z,37.64
2023-04-20T12:32:13.699Z,39.59
2023-04-20T12:34:41.653Z,39.10
2023-04-20T12:37:09.608Z,37.45
2023-04-20T12:39:38.889Z,38.18
2023-04-20T12:42:06.884Z,42.32
2023-04-20T12:44:34.875Z,40.43
2023-04-20T12:47:02.978Z,36.84
2023-04-20T12:49:32.552Z,36.82
2023-04-20T12:52:01.640Z,38.16
2023-04-20T12:54:29.549Z,41.14
2023-04-20T12:56:58.851Z,42.09
2023-04-20T12:59:26.816Z,43.54
2023-04-20T13:01:54.798Z,46.33
2023-04-20T13:04:23.378Z,49.04
2023-04-20T13:06:51.795Z,53.92
2023-04-20T13:09:19.784Z,58.38
2023-04-20T13:11:47.801Z,59.95
2023-04-20T13:14:17.259Z,63.06
2023-04-20T13:16:45.585Z,65.54
2023-04-20T13:19:13.583Z,71.46
2023-04-20T13:21:41.606Z,89.71
2023-04-20T13:24:09.876Z,100.00
2023-04-20T13:26:37.829Z,100.00
2023-04-20T13:29:05.821Z,100.00
2023-04-20T13:31:35.189Z,100.00
2023-04-20T13:34:03.173Z,100.00
2023-04-20T13:36:32.758Z,100.00
2023-04-20T13:39:00.882Z,100.00
2023-04-20T13:41:28.784Z,100.00
2023-04-20T13:43:58.044Z,100.00
2023-04-20T13:46:26.067Z,100.00
2023-04-20T13:48:55.482Z,100.00
2023-04-20T13:51:23.421Z,100.00
2023-04-20T13:53:51.368Z,100.00
2023-04-20T13:56:19.441Z,100.00
2023-04-20T13:58:47.442Z,100.00
2023-04-20T14:01:16.575Z,100.00
2023-04-20T14:03:44.947Z,100.00
2023-04-20T14:06:14.404Z,100.00
2023-04-20T14:08:42.351Z,100.00
2023-04-20T14:11:10.767Z,100.00
2023-04-20T14:13:38.969Z,100.00
2023-04-20T14:16:09.761Z,100.00
2023-04-20T14:18:37.717Z,100.00
2023-04-20T14:21:05.780Z,100.00
2023-04-20T14:23:35.184Z,100.00
2023-04-20T14:26:04.048Z,100.00
2023-04-20T14:28:33.373Z,100.00
2023-04-20T14:31:02.461Z,100.00
2023-04-20T14:33:30.490Z,100.00
2023-04-20T14:35:58.504Z,100.00
2023-04-20T14:38:26.446Z,100.00
2023-04-20T14:40:55.788Z,100.00
2023-04-20T14:43:24.003Z,100.00
2023-04-20T14:45:52.023Z,100.00
2023-04-20T14:48:20.021Z,100.00
2023-04-20T14:50:47.920Z,100.00
2023-04-20T14:53:15.880Z,100.00
2023-04-20T14:55:43.868Z,100.00
2023-04-20T14:58:13.248Z,100.00
2023-04-20T15:00:41.206Z,100.00
2023-04-20T15:03:09.259Z,100.00
2023-04-20T15:05:37.676Z,100.00
2023-04-20T15:08:06.114Z,100.00
2023-04-20T15:10:34.817Z,100.00
2023-04-20T15:13:03.811Z,100.00
2023-04-20T15:15:46.847Z,100.00
2023-04-20T15:18:16.646Z,100.00
2023-04-20T15:20:44.645Z,100.00
2023-04-20T15:23:12.676Z,100.00
2023-04-20T15:25:40.590Z,100.00
2023-04-20T15:28:08.526Z,100.00
2023-04-20T15:30:37.820Z,100.00
2023-04-20T15:33:06.119Z,100.00
2023-04-20T15:35:34.240Z,100.00
2023-04-20T15:38:02.193Z,100.00
2023-04-20T15:40:30.389Z,100.00
2023-04-20T15:42:58.338Z,100.00
2023-04-20T15:45:26.328Z,100.00
2023-04-20T15:47:56.053Z,100.00
2023-04-20T15:50:24.154Z,100.00
2023-04-20T15:52:52.970Z,100.00
2023-04-20T15:55:20.902Z,100.00
2023-04-20T15:57:48.854Z,100.00
2023-04-20T16:00:17.549Z,100.00
2023-04-20T16:02:45.732Z,100.00
2023-04-20T16:05:15.119Z,100.00
2023-04-20T16:07:43.061Z,100.00
2023-04-20T16:10:11.805Z,100.00
2023-04-20T16:12:39.797Z,100.00
2023-04-20T16:15:08.740Z,100.00
2023-04-20T16:17:36.668Z,100.00
2023-04-20T16:20:05.552Z,100.00
2023-04-20T16:22:34.892Z,100.00
2023-04-20T16:25:02.864Z,100.00
2023-04-20T16:27:30.838Z,100.00
2023-04-20T16:29:58.809Z,100.00
2023-04-20T16:32:26.816Z,100.00
2023-04-20T16:34:54.766Z,100.00
2023-04-20T16:37:22.696Z,100.00
2023-04-20T16:39:51.992Z,100.00
2023-04-20T16:42:19.922Z,100.00
2023-04-20T16:44:47.899Z,100.00
2023-04-20T16:47:15.867Z,100.00
2023-04-20T16:49:43.845Z,100.00
2023-04-20T16:52:11.807Z,100.00
2023-04-20T16:54:41.685Z,100.00
2023-04-20T16:57:11.011Z,100.00
2023-04-20T16:59:38.976Z,100.00
2023-04-20T17:02:06.972Z,100.00
2023-04-20T17:04:35.857Z,100.00
2023-04-20T17:07:04.130Z,100.00
2023-04-20T17:09:32.085Z,100.00
2023-04-20T17:12:00.039Z,100.00
2023-04-20T17:14:32.224Z,100.00
2023-04-20T17:17:00.285Z,100.00
2023-04-20T17:19:30.053Z,100.00
2023-04-20T17:21:59.229Z,100.00
2023-04-20T17:24:27.191Z,100.00
2023-04-20T17:26:55.173Z,100.00
2023-04-20T17:29:23.141Z,100.00
2023-04-20T17:31:52.466Z,100.00
2023-04-20T17:34:20.926Z,100.00
2023-04-20T17:36:49.005Z,100.00
2023-04-20T17:39:16.931Z,100.00
2023-04-20T17:41:45.310Z,100.00
2023-04-20T17:44:13.251Z,100.00
2023-04-20T17:46:41.528Z,100.00
2023-04-20T17:49:10.827Z,100.00
2023-04-20T17:51:38.750Z,100.00
2023-04-20T17:54:07.817Z,100.00
2023-04-20T17:56:35.893Z,100.00
2023-04-20T17:59:04.040Z,100.00
2023-04-20T18:01:34.507Z,100.00
2023-04-20T18:04:02.714Z,100.00
2023-04-20T18:06:33.304Z,100.00
2023-04-20T18:09:01.295Z,100.00
2023-04-20T18:11:29.312Z,100.00
2023-04-20T18:13:57.261Z,100.00
2023-04-20T18:16:25.265Z,100.00
2023-04-20T18:18:53.220Z,100.00
2023-04-20T18:21:21.226Z,100.00
2023-04-20T18:23:51.401Z,100.00
2023-04-20T18:26:20.416Z,100.00
2023-04-20T18:28:48.392Z,100.00
2023-04-20T18:31:16.337Z,100.00
2023-04-20T18:33:44.293Z,100.00
2023-04-20T18:36:12.232Z,100.00
2023-04-20T18:38:40.256Z,100.00
2023-04-20T18:41:09.584Z,100.00
2023-04-20T18:43:37.556Z,100.00
2023-04-20T18:46:05.937Z,100.00
2023-04-20T18:48:33.951Z,100.00
2023-04-20T18:51:02.731Z,100.00
2023-04-20T18:53:31.432Z,100.00
2023-04-20T18:56:02.196Z,100.00
2023-04-20T18:58:31.554Z,100.00
2023-04-20T19:01:01.066Z,100.00
2023-04-20T19:03:29.299Z,100.00
2023-04-20T19:05:57.357Z,100.00
2023-04-20T19:08:25.334Z,100.00
2023-04-20T19:10:56.506Z,100.00
2023-04-20T19:13:24.484Z,100.00
2023-04-20T19:15:57.564Z,100.00
2023-04-20T19:18:26.491Z,100.00
2023-04-20T19:20:54.794Z,100.00
2023-04-20T19:23:22.739Z,100.00
2023-04-20T19:25:50.623Z,100.00
2023-04-20T19:28:18.576Z,100.00
2023-04-20T19:30:46.550Z,100.00
2023-04-20T19:33:15.923Z,100.00
2023-04-20T19:35:48.223Z,100.00
2023-04-20T19:38:16.140Z,100.00
2023-04-20T19:40:44.062Z,100.00
2023-04-20T19:43:11.949Z,100.00
2023-04-20T19:45:39.916Z,100.00
2023-04-20T19:48:08.004Z,100.00
2023-04-20T19:50:37.360Z,100.00
2023-04-20T19:53:05.281Z,100.00
2023-04-20T19:55:33.258Z,100.00
2023-04-20T19:58:01.372Z,100.00
2023-04-20T20:00:29.322Z,100.00
2023-04-20T20:02:57.419Z,100.00
2023-04-20T20:05:25.628Z,100.00
2023-04-20T20:07:55.105Z,100.00
2023-04-20T20:10:23.058Z,100.00
2023-04-20T20:12:51.004Z,100.00
2023-04-20T20:15:19.019Z,100.00
2023-04-20T20:17:47.715Z,100.00
2023-04-20T20:20:16.387Z,100.00
2023-04-20T20:22:49.789Z,100.00
2023-04-20T20:25:19.888Z,100.00
2023-04-20T20:27:47.841Z,100.00
2023-04-20T20:30:16.087Z,100.00
2023-04-20T20:32:44.063Z,100.00
2023-04-20T20:35:13.136Z,100.00
2023-04-20T20:37:41.637Z,100.00
2023-04-20T20:40:12.272Z,100.00
2023-04-20T20:42:42.466Z,100.00
2023-04-20T20:45:12.550Z,100.00
2023-04-20T20:47:41.119Z,100.00
2023-04-20T20:50:09.745Z,100.00
2023-04-20T20:52:37.727Z,100.00
2023-04-20T20:55:06.331Z,100.00
2023-04-20T20:57:34.503Z,100.00
2023-04-20T21:00:07.477Z,100.00
2023-04-20T21:02:35.695Z,100.00
2023-04-20T21:05:03.743Z,100.00
2023-04-20T21:07:31.676Z,100.00
2023-04-20T21:09:59.701Z,100.00
2023-04-20T21:12:27.649Z,100.00
2023-04-20T21:14:55.584Z,100.00
2023-04-20T21:17:25.305Z,100.00
2023-04-20T21:19:53.247Z,100.00
2023-04-20T21:22:22.600Z,100.00
2023-04-20T21:24:50.648Z,100.00
2023-04-20T21:27:18.624Z,100.00
2023-04-20T21:29:46.595Z,100.00
2023-04-20T21:32:14.590Z,100.00
2023-04-20T21:34:43.925Z,100.00
2023-04-20T21:37:11.845Z,100.00
2023-04-20T21:39:39.768Z,100.00
2023-04-20T21:42:07.720Z,100.00
2023-04-20T21:44:35.725Z,100.00
2023-04-20T21:47:03.659Z,100.00
2023-04-20T21:49:31.592Z,100.00
2023-04-20T21:52:00.887Z,100.00
2023-04-20T21:54:28.835Z,100.00
2023-04-20T21:56:57.075Z,100.00
2023-04-20T21:59:25.011Z,100.00
2023-04-20T22:01:52.974Z,100.00
2023-04-20T22:04:21.098Z,100.00
2023-04-20T22:06:49.503Z,100.00
2023-04-20T22:09:18.982Z,100.00
2023-04-20T22:11:47.860Z,100.00
2023-04-20T22:14:15.836Z,100.00
2023-04-20T22:16:43.817Z,100.00
2023-04-20T22:19:12.481Z,100.00
2023-04-20T22:21:40.520Z,100.00
2023-04-20T22:24:08.754Z,100.00
2023-04-20T22:26:38.059Z,100.00
2023-04-20T22:29:06.334Z,100.00
2023-04-20T22:31:34.304Z,100.00
2023-04-20T22:34:02.274Z,100.00
2023-04-20T22:36:30.451Z,100.00
2023-04-20T22:38:58.395Z,100.00
2023-04-20T22:41:26.345Z,100.00
2023-04-20T22:43:55.673Z,100.00
2023-04-20T22:46:23.669Z,100.00
2023-04-20T22:48:52.485Z,100.00
2023-04-20T22:51:20.681Z,100.00
2023-04-20T22:53:48.594Z,100.00
2023-04-20T22:56:16.512Z,100.00
2023-04-20T22:58:44.420Z,100.00
2023-04-20T23:01:13.723Z,100.00
2023-04-20T23:03:41.791Z,100.00
2023-04-20T23:06:11.244Z,100.00
2023-04-20T23:08:39.893Z,100.00
2023-04-20T23:11:07.838Z,100.00
2023-04-20T23:13:37.171Z,100.00
2023-04-20T23:16:05.571Z,100.00
2023-04-20T23:18:35.076Z,100.00
2023-04-20T23:21:03.104Z,100.00
2023-04-20T23:23:31.040Z,100.00
2023-04-20T23:25:59.006Z,100.00
2023-04-20T23:28:26.964Z,100.00
2023-04-20T23:30:54.931Z,100.00
2023-04-20T23:33:22.884Z,100.00
2023-04-20T23:35:52.168Z,100.00
2023-04-20T23:38:20.133Z,100.00
2023-04-20T23:40:48.050Z,100.00
2023-04-20T23:43:16.035Z,100.00
2023-04-20T23:45:44.036Z,100.00
2023-04-20T23:48:12.002Z,100.00
2023-04-20T23:50:40.021Z,100.00
2023-04-20T23:53:10.232Z,100.00
2023-04-20T23:55:38.526Z,100.00
2023-04-20T23:58:06.427Z,100.00
